Time;durP1;ratioP1;P1;durP2;ratioP2;P2;SDS_P1;SDS_P2;PMS_P1;PMS_P2;Temp;Humidity;BMP_temperature;BMP_pressure;BME280_temperature;BME280_humidity;BME280_pressure;Samples;Min_cycle;Max_cycle;Signal;HPM_P1;HPM_P2
2020/12/07 00:01:53;;;;;;;8.68;4.70;;;;;;;1.76;100.00;94443.22;5057023;28;20150;-61
2020/12/07 00:04:20;;;;;;;9.10;4.53;;;;;;;1.75;100.00;94431.16;5067220;28;20040;-60
2020/12/07 00:06:52;;;;;;;8.90;5.05;;;;;;;1.73;100.00;94436.50;5034284;28;20040;-60
2020/12/07 00:09:19;;;;;;;11.70;5.57;;;;;;;1.74;100.00;94435.53;5088923;28;20093;-62
2020/12/07 00:11:48;;;;;;;7.60;3.83;;;;;;;1.73;100.00;94439.13;5044564;28;20048;-63
2020/12/07 00:14:15;;;;;;;9.10;5.13;;;;;;;1.73;100.00;94430.50;5090766;28;20060;-62
2020/12/07 00:16:44;;;;;;;8.43;4.82;;;;;;;1.70;100.00;94444.59;5051483;28;20105;-61
2020/12/07 00:19:12;;;;;;;9.18;5.20;;;;;;;1.73;100.00;94448.69;5089993;28;20040;-61
2020/12/07 00:21:42;;;;;;;9.02;5.13;;;;;;;1.75;100.00;94449.34;5043262;28;20131;-62
2020/12/07 00:24:09;;;;;;;10.45;5.85;;;;;;;1.78;100.00;94459.47;5074466;28;20048;-62
2020/12/07 00:26:37;;;;;;;13.13;6.15;;;;;;;1.73;100.00;94472.88;5049613;28;20453;-60
2020/12/07 00:29:05;;;;;;;10.98;5.95;;;;;;;1.74;100.00;94471.91;5090062;28;20044;-60
2020/12/07 00:31:33;;;;;;;12.18;6.25;;;;;;;1.71;100.00;94479.19;5051883;28;20502;-62
2020/12/07 00:34:01;;;;;;;11.30;5.85;;;;;;;1.65;100.00;94473.59;5088718;28;20044;-62
2020/12/07 00:36:28;;;;;;;10.00;5.28;;;;;;;1.61;100.00;94471.41;5057728;28;20040;-62
2020/12/07 00:38:55;;;;;;;11.55;5.63;;;;;;;1.61;100.00;94477.41;5075923;28;20083;-62
2020/12/07 00:41:23;;;;;;;11.38;5.97;;;;;;;1.61;100.00;94482.59;5067791;28;20045;-62
2020/12/07 00:43:51;;;;;;;13.15;6.85;;;;;;;1.67;100.00;94466.47;5050996;28;20050;-62
2020/12/07 00:46:19;;;;;;;13.00;6.40;;;;;;;1.62;100.00;94458.28;5070658;28;20104;-63
2020/12/07 00:48:46;;;;;;;13.38;6.75;;;;;;;1.64;100.00;94465.91;5042067;28;20506;-63
2020/12/07 00:51:13;;;;;;;14.18;7.05;;;;;;;1.67;100.00;94470.84;5090517;28;20398;-62
2020/12/07 00:53:40;;;;;;;13.40;6.93;;;;;;;1.64;100.00;94468.53;5051583;28;20054;-60
2020/12/07 00:56:07;;;;;;;12.63;6.68;;;;;;;1.60;100.00;94465.38;5088452;28;20569;-62
2020/12/07 00:58:34;;;;;;;13.52;6.68;;;;;;;1.53;100.00;94464.31;5053012;28;20075;-63
2020/12/07 01:01:01;;;;;;;16.30;7.70;;;;;;;1.55;100.00;94461.56;5068291;28;20456;-60
2020/12/07 01:03:30;;;;;;;15.43;7.10;;;;;;;1.47;100.00;94462.25;5037380;28;20068;-61
2020/12/07 01:05:57;;;;;;;15.65;7.35;;;;;;;1.51;100.00;94489.56;5065438;28;20052;-62
2020/12/07 01:08:24;;;;;;;16.33;7.50;;;;;;;1.48;100.00;94465.66;5037844;28;20044;-61
2020/12/07 01:10:55;;;;;;;14.23;7.25;;;;;;;1.48;100.00;94478.66;5086557;28;20055;-63
2020/12/07 01:13:22;;;;;;;14.90;7.93;;;;;;;1.55;100.00;94472.78;5052312;28;20090;-62
2020/12/07 01:15:51;;;;;;;15.80;7.65;;;;;;;1.61;100.00;94471.41;5085109;28;20044;-59
2020/12/07 01:18:18;;;;;;;15.40;7.72;;;;;;;1.58;100.00;94479.47;5048723;28;21270;-61
2020/12/07 01:20:47;;;;;;;17.08;8.55;;;;;;;1.59;100.00;94494.91;5065912;28;20048;-60
2020/12/07 01:23:15;;;;;;;16.45;8.10;;;;;;;1.63;100.00;94490.28;5059961;28;20075;-61
2020/12/07 01:25:42;;;;;;;17.10;8.13;;;;;;;1.67;100.00;94499.41;5049359;28;20056;-62
2020/12/07 01:28:09;;;;;;;17.63;8.57;;;;;;;1.69;100.00;94510.50;5048398;28;20046;-61
2020/12/07 01:30:37;;;;;;;15.07;7.88;;;;;;;1.66;100.00;94510.78;5014080;28;20048;-64
2020/12/07 01:33:04;;;;;;;18.30;8.98;;;;;;;1.68;100.00;94514.03;5044224;28;20047;-62
2020/12/07 01:35:33;;;;;;;18.42;9.20;;;;;;;1.68;100.00;94527.03;5009585;28;20044;-61
2020/12/07 01:38:02;;;;;;;18.77;9.38;;;;;;;1.68;100.00;94527.03;5060497;28;20048;-63
2020/12/07 01:40:29;;;;;;;21.38;10.60;;;;;;;1.69;100.00;94533.88;5047572;28;20135;-62
2020/12/07 01:42:56;;;;;;;18.25;8.95;;;;;;;1.72;100.00;94530.16;5081596;28;20570;-62
2020/12/07 01:45:24;;;;;;;18.50;7.80;;;;;;;1.63;100.00;94506.66;5042779;28;20048;-61
2020/12/07 01:47:51;;;;;;;16.33;8.13;;;;;;;1.67;100.00;94505.44;5074943;28;20036;-62
2020/12/07 01:50:18;;;;;;;15.55;8.18;;;;;;;1.63;100.00;94485.06;5048612;28;20514;-61
2020/12/07 01:52:46;;;;;;;13.50;7.00;;;;;;;1.63;100.00;94491.09;5055527;28;20032;-61
2020/12/07 01:55:16;;;;;;;13.45;6.72;;;;;;;1.64;100.00;94497.91;5010507;28;20048;-60
2020/12/07 01:57:49;;;;;;;15.25;7.97;;;;;;;1.65;100.00;94503.91;5051765;28;20054;-61
2020/12/07 02:00:17;;;;;;;13.32;7.57;;;;;;;1.66;100.00;94503.78;5026974;28;20056;-61
2020/12/07 02:02:46;;;;;;;13.25;6.97;;;;;;;1.65;100.00;94502.16;5059531;28;20036;-63
2020/12/07 02:05:19;;;;;;;16.00;7.57;;;;;;;1.72;100.00;94502.44;5034911;28;20048;-60
2020/12/07 02:07:49;;;;;;;14.63;7.38;;;;;;;1.70;100.00;94498.31;5051080;28;20481;-62
2020/12/07 02:10:17;;;;;;;14.77;8.05;;;;;;;1.75;100.00;94511.72;5041466;28;20050;-62
2020/12/07 02:12:45;;;;;;;16.17;7.53;;;;;;;1.78;100.00;94533.03;5088846;22;20044;-49
2020/12/07 02:15:13;;;;;;;15.20;8.27;;;;;;;1.75;100.00;94543.69;5021726;28;20041;-55
2020/12/07 02:17:40;;;;;;;17.65;9.43;;;;;;;1.79;100.00;94544.25;5019740;28;20040;-49
2020/12/07 02:20:08;;;;;;;16.65;8.50;;;;;;;1.77;100.00;94554.78;5064127;28;20036;-50
2020/12/07 02:22:35;;;;;;;17.42;9.10;;;;;;;1.81;100.00;94571.72;5026994;28;20055;-47
2020/12/07 02:25:26;;;;;;;17.13;8.85;;;;;;;1.85;100.00;94574.88;5045851;28;20040;-50
2020/12/07 02:27:53;;;;;;;18.45;9.38;;;;;;;1.87;100.00;94575.56;5015155;28;20591;-50
2020/12/07 02:30:23;;;;;;;18.17;8.40;;;;;;;1.85;100.00;94586.09;5038038;28;20535;-47
2020/12/07 02:32:53;;;;;;;17.30;9.27;;;;;;;1.92;100.00;94603.72;4999552;28;20566;-49
2020/12/07 02:35:26;;;;;;;19.08;10.07;;;;;;;1.89;100.00;94610.00;5063493;28;20044;-49
2020/12/07 02:37:54;;;;;;;19.00;9.98;;;;;;;1.91;100.00;94608.13;5009095;28;20102;-49
2020/12/07 02:40:24;;;;;;;16.30;8.68;;;;;;;1.93;100.00;94614.00;5046914;28;20076;-47
2020/12/07 02:42:55;;;;;;;17.90;9.63;;;;;;;1.86;100.00;94605.94;4999950;28;20045;-50
2020/12/07 02:45:27;;;;;;;16.45;8.82;;;;;;;1.87;100.00;94596.38;5023942;28;20110;-54
2020/12/07 02:48:03;;;;;;;17.73;8.70;;;;;;;1.91;100.00;94600.31;5006406;28;20602;-52
2020/12/07 02:50:33;;;;;;;15.38;8.05;;;;;;;1.90;100.00;94609.09;5036409;28;20512;-48
2020/12/07 02:53:03;;;;;;;14.98;8.20;;;;;;;1.92;100.00;94620.16;4995730;28;20316;-51
2020/12/07 02:55:30;;;;;;;14.52;7.70;;;;;;;1.94;100.00;94625.22;5026509;28;20045;-47
2020/12/07 02:57:57;;;;;;;12.82;6.95;;;;;;;1.91;100.00;94610.72;5011664;28;20468;-49
2020/12/07 03:00:28;;;;;;;12.05;7.10;;;;;;;1.88;100.00;94603.19;5043334;28;20135;-49
2020/12/07 03:02:57;;;;;;;15.45;8.18;;;;;;;1.93;100.00;94613.16;5002630;28;20053;-50
2020/12/07 03:05:27;;;;;;;;;;;;;;;1.92;100.00;94619.31;5038218;28;20041;-49
2020/12/07 03:08:01;;;;;;;12.48;4.63;;;;;;;1.84;100.00;94620.84;5009225;28;19928;-49
2020/12/07 03:10:28;;;;;;;13.23;7.30;;;;;;;1.88;100.00;94613.59;5027288;28;20037;-49
2020/12/07 03:12:56;;;;;;;12.80;7.15;;;;;;;1.85;100.00;94626.84;5008187;28;20048;-48
2020/12/07 03:15:27;;;;;;;11.93;7.05;;;;;;;1.90;100.00;94630.69;5049467;28;20032;-46
2020/12/07 03:17:55;;;;;;;14.00;7.70;;;;;;;1.93;100.00;94632.19;4996342;28;22699;-52
2020/12/07 03:20:31;;;;;;;13.10;7.35;;;;;;;1.92;100.00;94633.13;5043612;28;20057;-52
2020/12/07 03:22:59;;;;;;;10.32;5.80;;;;;;;1.89;100.00;94636.00;5013183;28;20048;-51
2020/12/07 03:25:27;;;;;;;11.57;6.72;;;;;;;1.92;100.00;94632.31;5051529;28;20416;-49
2020/12/07 03:27:56;;;;;;;13.43;7.32;;;;;;;1.90;100.00;94640.28;5031459;28;21412;-49
2020/12/07 03:30:22;;;;;;;10.15;5.80;;;;;;;1.87;100.00;94636.16;5010532;28;20128;-47
2020/12/07 03:32:51;;;;;;;14.95;7.68;;;;;;;1.79;100.00;94637.78;5033661;28;20053;-50
2020/12/07 03:35:18;;;;;;;10.95;6.32;;;;;;;1.74;100.00;94646.00;4990885;28;20508;-48
2020/12/07 03:37:46;;;;;;;11.20;6.63;;;;;;;1.70;100.00;94662.81;5041042;28;20127;-49
2020/12/07 03:40:13;;;;;;;11.38;7.03;;;;;;;1.70;100.00;94665.41;5011487;28;20072;-47
2020/12/07 03:42:46;;;;;;;12.50;7.28;;;;;;;1.73;100.00;94669.53;5046051;28;20068;-47
2020/12/07 03:45:15;;;;;;;11.50;7.17;;;;;;;1.69;100.00;94676.78;5008372;28;20399;-48
2020/12/07 03:47:43;;;;;;;12.60;6.97;;;;;;;1.69;100.00;94674.16;5039051;28;20044;-50
2020/12/07 03:50:14;;;;;;;13.93;7.38;;;;;;;1.69;100.00;94681.97;4994068;28;20122;-48
2020/12/07 03:52:44;;;;;;;13.43;7.53;;;;;;;1.69;100.00;94697.56;5044480;28;20047;-51
2020/12/07 03:55:18;;;;;;;14.23;7.95;;;;;;;1.66;100.00;94684.81;5001351;28;20200;-46
2020/12/07 03:57:47;;;;;;;13.35;7.50;;;;;;;1.62;100.00;94675.66;5033343;28;20490;-48
2020/12/07 04:00:14;;;;;;;14.40;7.18;;;;;;;1.57;100.00;94683.03;4992441;28;20442;-50
2020/12/07 04:02:47;;;;;;;12.13;6.82;;;;;;;1.50;100.00;94687.94;5046268;28;20052;-47
2020/12/07 04:05:27;;;;;;;12.50;7.15;;;;;;;1.46;100.00;94696.13;4998465;28;20045;-46
2020/12/07 04:08:13;;;;;;;12.88;7.65;;;;;;;1.34;100.00;94698.00;5048093;28;20168;-48
2020/12/07 04:10:43;;;;;;;13.07;7.13;;;;;;;1.28;100.00;94706.31;4995088;28;20128;-49
2020/12/07 04:13:11;;;;;;;13.15;7.28;;;;;;;1.17;100.00;94705.47;5050441;28;20056;-51
2020/12/07 04:15:38;;;;;;;11.18;6.30;;;;;;;1.10;100.00;94709.53;5008848;28;20137;-48
2020/12/07 04:18:25;;;;;;;13.98;7.10;;;;;;;1.04;100.00;94710.06;5044087;28;20434;-47
2020/12/07 04:20:52;;;;;;;13.05;6.97;;;;;;;0.91;100.00;94701.66;5012365;28;20120;-46
2020/12/07 04:23:20;;;;;;;15.50;6.93;;;;;;;0.82;100.00;94705.81;5046574;28;20045;-47
2020/12/07 04:25:46;;;;;;;13.48;6.68;;;;;;;0.73;100.00;94698.84;5014190;28;20088;-48
2020/12/07 04:28:14;;;;;;;12.77;7.20;;;;;;;0.58;100.00;94690.53;5052159;28;20048;-49
2020/12/07 04:30:41;;;;;;;14.35;7.15;;;;;;;0.57;100.00;94694.09;5012218;28;20094;-52
2020/12/07 04:33:09;;;;;;;14.20;7.25;;;;;;;0.50;100.00;94705.09;5043558;28;20642;-49
2020/12/07 04:35:36;;;;;;;14.43;7.45;;;;;;;0.47;100.00;94711.34;5045018;28;20048;-56
2020/12/07 04:38:03;;;;;;;14.05;7.68;;;;;;;0.41;100.00;94715.31;5023323;28;20068;-49
2020/12/07 04:40:30;;;;;;;15.20;7.43;;;;;;;0.40;100.00;94718.00;5048440;28;20585;-50
2020/12/07 04:42:59;;;;;;;13.48;7.10;;;;;;;0.26;100.00;94726.91;5012507;28;20037;-50
2020/12/07 04:45:27;;;;;;;15.00;7.55;;;;;;;0.21;100.00;94729.06;5048824;28;20499;-48
2020/12/07 04:47:54;;;;;;;14.93;7.38;;;;;;;0.21;100.00;94716.91;5014708;28;20052;-47
2020/12/07 04:50:21;;;;;;;14.20;8.00;;;;;;;0.21;100.00;94710.91;5037481;28;20127;-51
2020/12/07 04:52:49;;;;;;;16.42;7.88;;;;;;;0.20;100.00;94701.47;5015397;28;20053;-47
2020/12/07 04:55:16;;;;;;;16.65;7.78;;;;;;;0.12;100.00;94711.66;5045658;28;20089;-48
2020/12/07 04:57:44;;;;;;;15.63;8.05;;;;;;;0.28;100.00;94714.66;5006744;28;20048;-50
2020/12/07 05:00:12;;;;;;;15.30;7.78;;;;;;;0.34;100.00;94728.88;5054250;28;20118;-50
2020/12/07 05:02:40;;;;;;;15.05;7.70;;;;;;;0.42;100.00;94726.50;5012676;28;20120;-51
2020/12/07 05:05:08;;;;;;;15.80;8.13;;;;;;;0.52;100.00;94732.56;5041883;28;20095;-47
2020/12/07 05:07:35;;;;;;;16.83;8.80;;;;;;;0.64;100.00;94736.72;5019560;28;20040;-47
2020/12/07 05:10:11;;;;;;;17.42;8.25;;;;;;;0.67;100.00;94738.25;5041220;28;20045;-47
2020/12/07 05:12:41;;;;;;;14.85;7.72;;;;;;;0.79;100.00;94741.59;5005109;28;20577;-48
2020/12/07 05:15:11;;;;;;;17.42;8.43;;;;;;;0.87;100.00;94741.78;5046944;28;20094;-49
2020/12/07 05:17:38;;;;;;;17.35;8.88;;;;;;;0.93;100.00;94747.28;5009269;28;20046;-48
2020/12/07 05:20:07;;;;;;;15.98;8.60;;;;;;;0.99;100.00;94753.72;5048104;28;20041;-52
2020/12/07 05:22:35;;;;;;;16.90;7.90;;;;;;;1.02;100.00;94756.06;5013831;28;20045;-49
2020/12/07 05:25:04;;;;;;;17.13;8.25;;;;;;;1.06;100.00;94762.63;5031437;28;20403;-47
2020/12/07 05:27:32;;;;;;;16.95;8.38;;;;;;;1.08;100.00;94765.13;5045166;28;20079;-47
2020/12/07 05:30:08;;;;;;;13.32;7.28;;;;;;;1.08;100.00;94771.13;5007077;28;20473;-47
2020/12/07 05:32:36;;;;;;;12.63;6.50;;;;;;;1.13;100.00;94773.31;5051203;28;20052;-48
2020/12/07 05:35:06;;;;;;;10.63;5.93;;;;;;;1.16;100.00;94779.09;5011319;28;20044;-49
2020/12/07 05:37:33;;;;;;;6.95;4.32;;;;;;;1.19;100.00;94783.19;5040503;28;20045;-49
2020/12/07 05:40:01;;;;;;;10.20;5.68;;;;;;;1.25;100.00;94774.91;5008672;28;20045;-49
2020/12/07 05:42:29;;;;;;;10.48;5.57;;;;;;;1.30;100.00;94783.13;5042749;28;20033;-47
2020/12/07 05:44:56;;;;;;;9.38;5.55;;;;;;;1.31;100.00;94784.78;5012307;28;20107;-50
2020/12/07 05:47:24;;;;;;;10.85;5.75;;;;;;;1.28;100.00;94786.81;5042915;28;20052;-50
2020/12/07 05:49:54;;;;;;;9.43;5.53;;;;;;;1.23;100.00;94786.38;5013593;28;20033;-52
2020/12/07 05:52:31;;;;;;;9.03;4.80;;;;;;;1.27;100.00;94780.78;5047276;28;20044;-47
2020/12/07 05:55:01;;;;;;;8.43;4.75;;;;;;;1.24;100.00;94781.06;5008842;28;20304;-47
2020/12/07 05:57:31;;;;;;;6.50;3.95;;;;;;;1.22;100.00;94785.53;5049154;28;20053;-47
2020/12/07 06:00:04;;;;;;;6.80;4.15;;;;;;;1.22;100.00;94787.31;5013259;28;20045;-51
2020/12/07 06:02:40;;;;;;;7.32;4.22;;;;;;;1.25;100.00;94794.84;5043343;28;20156;-49
2020/12/07 06:05:13;;;;;;;8.95;4.70;;;;;;;1.34;100.00;94794.06;5013109;28;20040;-49
2020/12/07 06:07:45;;;;;;;8.73;4.97;;;;;;;1.41;100.00;94796.03;5043628;28;20056;-48
2020/12/07 06:10:13;;;;;;;8.77;5.30;;;;;;;1.45;100.00;94791.41;4998370;28;20076;-48
2020/12/07 06:12:43;;;;;;;8.10;4.70;;;;;;;1.45;100.00;94788.81;5051790;28;20073;-47
2020/12/07 06:15:10;;;;;;;10.73;5.10;;;;;;;1.52;100.00;94802.09;5012532;28;20052;-47
2020/12/07 06:17:36;;;;;;;8.85;5.03;;;;;;;1.61;100.00;94799.50;5040735;28;20039;-47
2020/12/07 06:20:05;;;;;;;11.15;6.30;;;;;;;1.63;100.00;94802.00;5018430;28;22300;-49
2020/12/07 06:22:33;;;;;;;9.13;5.20;;;;;;;1.70;100.00;94805.72;5046815;28;20041;-51
2020/12/07 06:25:01;;;;;;;10.23;5.72;;;;;;;1.64;100.00;94806.22;5017383;28;20037;-48
2020/12/07 06:27:28;;;;;;;10.73;5.40;;;;;;;1.62;100.00;94806.38;5046808;28;20045;-46
2020/12/07 06:29:57;;;;;;;10.90;5.72;;;;;;;1.57;100.00;94813.72;5051041;28;20435;-50
2020/12/07 06:32:43;;;;;;;8.27;4.90;;;;;;;1.54;100.00;94811.38;5009196;28;20049;-48
2020/12/07 06:35:10;;;;;;;8.85;5.20;;;;;;;1.49;100.00;94810.97;5048654;28;20045;-46
2020/12/07 06:37:43;;;;;;;11.85;5.20;;;;;;;1.41;100.00;94813.38;5017595;28;20064;-49
2020/12/07 06:40:11;;;;;;;10.45;5.22;;;;;;;1.34;100.00;94812.25;5041136;28;20075;-50
2020/12/07 06:42:42;;;;;;;8.45;5.15;;;;;;;1.34;100.00;94815.69;5018629;28;20045;-48
2020/12/07 06:45:13;;;;;;;9.93;5.60;;;;;;;1.44;100.00;94823.50;5048984;28;20134;-47
2020/12/07 06:47:40;;;;;;;11.27;5.57;;;;;;;1.38;100.00;94824.03;5008535;28;20099;-52
2020/12/07 06:50:15;;;;;;;9.05;5.43;;;;;;;1.38;100.00;94834.41;5056931;28;20468;-47
2020/12/07 06:52:44;;;;;;;12.13;6.43;;;;;;;1.35;100.00;94837.28;5010680;28;20099;-51
2020/12/07 06:55:14;;;;;;;8.13;4.85;;;;;;;1.34;100.00;94848.59;5051016;28;20063;-50
2020/12/07 06:57:43;;;;;;;8.63;5.68;;;;;;;1.33;100.00;94849.56;5009841;28;20515;-51
2020/12/07 07:00:13;;;;;;;9.57;5.38;;;;;;;1.33;100.00;94854.75;5045094;28;20052;-49
2020/12/07 07:02:42;;;;;;;11.77;5.80;;;;;;;1.31;100.00;94857.47;5017725;28;20041;-47
2020/12/07 07:05:10;;;;;;;10.65;5.88;;;;;;;1.30;100.00;94871.38;5049967;28;20041;-48
2020/12/07 07:07:37;;;;;;;10.50;5.90;;;;;;;1.19;100.00;94880.06;5001745;28;20053;-47
2020/12/07 07:10:05;;;;;;;8.35;5.00;;;;;;;1.11;100.00;94882.47;5047465;28;20478;-47
2020/12/07 07:12:33;;;;;;;8.82;5.38;;;;;;;1.08;100.00;94887.94;5007515;28;20282;-48
2020/12/07 07:15:00;;;;;;;8.57;4.93;;;;;;;1.10;100.00;94888.63;5047565;28;20123;-52
2020/12/07 07:17:30;;;;;;;10.02;5.97;;;;;;;1.08;100.00;94893.13;5011414;28;20452;-47
2020/12/07 07:19:57;;;;;;;11.13;5.53;;;;;;;1.19;100.00;94893.06;5050107;28;20532;-50
2020/12/07 07:22:25;;;;;;;9.68;5.65;;;;;;;1.23;100.00;94887.59;5010514;28;20577;-48
2020/12/07 07:25:03;;;;;;;;;;;;;;;1.21;100.00;94892.13;5050010;28;20041;-51
2020/12/07 07:30:15;;;;;;;;;;;;;;;1.10;100.00;94891.22;5041797;28;20222;-51
2020/12/07 07:32:43;;;;;;;;;;;;;;;1.08;100.00;94894.91;5011920;28;19920;-48
2020/12/07 07:35:10;;;;;;;;;;;;;;;1.12;100.00;94891.91;5045722;28;20346;-47
2020/12/07 07:37:37;;;;;;;;;;;;;;;1.20;100.00;94899.06;5043661;28;20261;-47
2020/12/07 07:40:05;;;;;;;;;;;;;;;1.34;100.00;94895.31;5037198;28;19929;-47
2020/12/07 07:42:33;;;;;;;;;;;;;;;1.45;100.00;94879.69;5046700;28;20291;-48
2020/12/07 07:45:03;;;;;;;;;;;;;;;1.53;100.00;94881.66;5040556;28;19986;-47
2020/12/07 07:47:33;;;;;;;;;;;;;;;1.61;100.00;94887.00;5045026;28;20373;-48
2020/12/07 07:50:28;;;;;;;;;;;;;;;1.67;100.00;94883.91;5018655;28;19974;-48
2020/12/07 08:13:04;;;;;;;;;;;;;;;1.63;100.00;94905.91;5054904;28;19951;-51
2020/12/07 08:18:19;;;;;;;;;;;;;;;1.61;100.00;94902.59;5041552;28;20279;-58
2020/12/07 08:20:50;;;;;;;;;;;;;;;1.57;100.00;94904.63;5023385;28;19921;-59
2020/12/07 08:23:25;;;;;;;;;;;;;;;1.69;100.00;94899.34;5042865;28;20983;-61
2020/12/07 08:25:52;;;;;;;;;;;;;;;1.71;100.00;94913.88;5006041;28;19920;-61
2020/12/07 08:28:21;;;;;;;;;;;;;;;1.71;100.00;94913.06;5034346;28;19927;-59
2020/12/07 08:31:12;;;;;;;;;;;;;;;1.85;100.00;94913.53;5002662;28;19927;-62
2020/12/07 08:33:40;;;;;;;;;;;;;;;1.88;100.00;94918.47;5030302;28;19921;-61
2020/12/07 08:36:08;;;;;;;;;;;;;;;1.90;100.00;94919.19;5013859;28;19924;-61
2020/12/07 08:38:36;;;;;;;;;;;;;;;2.01;100.00;94913.06;5032803;28;19922;-61
2020/12/07 08:41:04;;;;;;;;;;;;;;;2.13;100.00;94908.56;5010978;28;19921;-59
2020/12/07 08:43:30;;;;;;;;;;;;;;;2.18;100.00;94913.41;5031522;28;19931;-60
2020/12/07 08:45:57;;;;;;;;;;;;;;;2.25;100.00;94904.94;4998320;28;19928;-57
2020/12/07 08:48:25;;;;;;;;;;;;;;;2.35;100.00;94920.56;5030965;28;19924;-56
2020/12/07 08:50:53;;;;;;;;;;;;;;;2.45;100.00;94920.63;5002512;28;20022;-58
2020/12/07 08:53:21;;;;;;;;;;;;;;;2.57;100.00;94929.94;5037240;28;19925;-60
2020/12/07 08:55:48;;;;;;;;;;;;;;;2.60;100.00;94927.06;5014018;28;19987;-58
2020/12/07 08:58:15;;;;;;;;;;;;;;;2.68;100.00;94918.59;5028406;28;19960;-61
2020/12/07 09:00:42;;;;;;;;;;;;;;;2.80;100.00;94927.94;5035816;28;19921;-61
2020/12/07 09:03:09;;;;;;;;;;;;;;;2.91;100.00;94932.19;4993337;28;20007;-57
2020/12/07 09:05:37;;;;;;;;;;;;;;;2.90;100.00;94944.38;5037253;28;19928;-61
2020/12/07 09:08:05;;;;;;;;;;;;;;;3.06;100.00;94942.09;4991838;28;19980;-60
2020/12/07 09:10:33;;;;;;;;;;;;;;;3.09;100.00;94939.19;5034124;28;20004;-60
2020/12/07 09:12:59;;;;;;;;;;;;;;;3.25;100.00;94949.06;5020659;28;19921;-60
2020/12/07 09:15:26;;;;;;;;;;;;;;;3.23;100.00;94947.53;5030308;28;20259;-59
2020/12/07 09:17:53;;;;;;;;;;;;;;;3.42;100.00;94944.94;5007887;28;20302;-57
2020/12/07 09:20:20;;;;;;;;;;;;;;;3.26;100.00;94950.69;5028169;28;20373;-57
2020/12/07 09:22:47;;;;;;;;;;;;;;;3.30;100.00;94943.44;4995577;28;19936;-57
2020/12/07 09:25:14;;;;;;;;;;;;;;;3.33;100.00;94946.59;5033504;28;19920;-60
2020/12/07 09:27:42;;;;;;;;;;;;;;;3.40;100.00;94956.47;4994446;28;19956;-60
2020/12/07 09:30:09;;;;;;;;;;;;;;;3.49;100.00;94958.25;5033790;28;19921;-59
2020/12/07 09:32:36;;;;;;;;;;;;;;;3.53;100.00;94950.00;5008484;28;19925;-55
2020/12/07 09:35:03;;;;;;;;;;;;;;;3.54;100.00;94966.47;5028994;28;19928;-56
2020/12/07 09:37:31;;;;;;;;;;;;;;;3.66;100.00;94956.72;4996946;28;19921;-60
2020/12/07 09:39:57;;;;;;;;;;;;;;;3.71;100.00;94954.50;5021352;28;19928;-58
2020/12/07 09:42:24;;;;;;;;;;;;;;;3.90;100.00;94943.22;5034477;28;19921;-59
2020/12/07 09:44:52;;;;;;;;;;;;;;;3.88;100.00;94940.75;4994181;28;19920;-57
2020/12/07 09:47:19;;;;;;;;;;;;;;;3.93;100.00;94941.16;5028521;28;20012;-57
2020/12/07 09:49:46;;;;;;;;;;;;;;;3.95;99.72;94935.78;5006365;28;20007;-58
2020/12/07 09:52:13;;;;;;;;;;;;;;;3.87;99.48;94944.31;5032281;28;19960;-60
2020/12/07 09:54:40;;;;;;;;;;;;;;;3.93;98.58;94940.34;4984208;28;19999;-57
2020/12/07 09:57:06;;;;;;;;;;;;;;;4.11;96.60;94938.63;5034861;28;19974;-58
2020/12/07 09:59:35;;;;;;;;;;;;;;;4.20;95.02;94939.59;4986501;28;20019;-57
2020/12/07 10:02:03;;;;;;;;;;;;;;;4.32;94.40;94940.22;5038425;28;19921;-59
2020/12/07 10:04:30;;;;;;;;;;;;;;;4.30;92.58;94940.34;4992976;28;19968;-59
2020/12/07 10:06:56;;;;;;;;;;;;;;;4.28;91.61;94937.06;5034998;28;20622;-59
2020/12/07 10:09:23;;;;;;;;;;;;;;;4.37;90.48;94946.66;5002281;28;19951;-59
2020/12/07 10:11:51;;;;;;;;;;;;;;;4.49;88.96;94947.28;5022761;28;19921;-58
2020/12/07 10:14:17;;;;;;;;;;;;;;;4.50;90.12;94939.28;4993432;28;19945;-62
2020/12/07 10:16:44;;;;;;;;;;;;;;;4.49;87.70;94950.69;5030954;28;20015;-56
2020/12/07 10:19:12;;;;;;;;;;;;;;;4.70;85.96;94942.63;4995158;28;19929;-59
2020/12/07 10:21:39;;;;;;;;;;;;;;;4.87;84.45;94938.41;5037105;28;20000;-54
2020/12/07 10:24:06;;;;;;;;;;;;;;;4.65;86.89;94938.81;5025220;28;19921;-60
2020/12/07 10:26:33;;;;;;;;;;;;;;;4.57;90.19;94931.69;5015370;28;19953;-60
2020/12/07 10:29:00;;;;;;;;;;;;;;;5.04;90.15;94930.75;5032596;28;19920;-60
2020/12/07 10:31:42;;;;;;;;;;;;;;;4.99;89.74;94916.34;4998812;28;20079;-58
2020/12/07 10:34:09;;;;;;;;;;;;;;;5.04;87.64;94915.06;5031203;28;19921;-56
2020/12/07 10:36:38;;;;;;;;;;;;;;;5.15;87.40;94910.44;4989664;28;19944;-57
2020/12/07 10:39:06;;;;;;;;;;;;;;;5.46;87.85;94913.47;5013622;28;20366;-61
2020/12/07 10:41:33;;;;;;;;;;;;;;;5.38;86.81;94918.63;5010459;28;20303;-57
2020/12/07 10:44:00;;;;;;;;;;;;;;;5.29;86.10;94924.75;5025366;28;20026;-59
2020/12/07 10:46:27;;;;;;;;;;;;;;;5.20;84.78;94915.22;4988995;28;20374;-60
2020/12/07 10:48:54;;;;;;;;;;;;;;;5.07;86.03;94917.38;5030186;28;19921;-58
2020/12/07 10:51:21;;;;;;;;;;;;;;;4.83;86.42;94916.16;4991063;28;19995;-54
2020/12/07 10:53:48;;;;;;;;;;;;;;;4.88;85.42;94913.09;5033732;28;20298;-58
2020/12/07 10:56:15;;;;;;;;;;;;;;;5.34;85.63;94903.41;4999104;28;19999;-59
2020/12/07 10:58:43;;;;;;;;;;;;;;;5.36;84.38;94898.84;5023517;28;19928;-59
2020/12/07 11:01:10;;;;;;;;;;;;;;;5.37;82.93;94898.72;4993473;28;19925;-58
2020/12/07 11:03:38;;;;;;;;;;;;;;;5.53;82.74;94907.63;5049033;28;19920;-59
2020/12/07 11:06:13;;;;;;;;;;;;;;;5.79;82.00;94903.25;4987554;28;23260;-61
2020/12/07 11:08:48;;;;;;;;;;;;;;;5.79;81.08;94903.25;5028452;28;19921;-57
2020/12/07 11:11:16;;;;;;;;;;;;;;;5.49;84.76;94914.97;4988784;28;20572;-60
2020/12/07 11:13:44;;;;;;;;;;;;;;;5.24;83.14;94938.28;5040847;28;19936;-56
2020/12/07 11:16:11;;;;;;;;;;;;;;;5.28;82.38;94941.41;5002858;28;20015;-58
2020/12/07 11:18:38;;;;;;;;;;;;;;;5.44;81.30;94935.53;5035641;28;19921;-57
2020/12/07 11:21:12;;;;;;;;;;;;;;;5.48;81.08;94927.22;5026373;28;19924;-58
2020/12/07 11:23:41;;;;;;;;;;;;;;;5.62;80.88;94922.44;4989381;28;20280;-58
2020/12/07 11:26:09;;;;;;;;;;;;;;;5.57;81.88;94919.44;5035463;28;19970;-59
2020/12/07 11:28:38;;;;;;;;;;;;;;;5.28;80.10;94919.69;4987566;28;20406;-60
2020/12/07 11:31:05;;;;;;;;;;;;;;;5.15;80.68;94914.84;5025775;28;19967;-60
2020/12/07 11:33:32;;;;;;;;;;;;;;;4.88;82.40;94919.16;5001659;28;19982;-58
2020/12/07 11:36:11;;;;;;;;;;;;;;;4.83;81.24;94918.78;5022272;28;20391;-58
2020/12/07 11:38:42;;;;;;;;;;;;;;;4.81;82.25;94912.88;4995107;28;20009;-59
2020/12/07 11:41:31;;;;;;;;;;;;;;;4.82;82.03;94913.69;5029049;28;20436;-59
2020/12/07 11:44:10;;;;;;;;;;;;;;;4.61;84.71;94917.41;4992306;28;20059;-59
2020/12/07 11:46:41;;;;;;;;;;;;;;;4.36;85.87;94913.66;5029123;28;19924;-61
2020/12/07 11:49:09;;;;;;;;;;;;;;;4.35;86.00;94906.81;4992834;28;19998;-59
2020/12/07 11:51:35;;;;;;;;;;;;;;;4.38;88.22;94906.53;5031974;28;19928;-59
2020/12/07 11:54:02;;;;;;;;;;;;;;;4.26;87.58;94910.28;4995325;28;19929;-57
2020/12/07 11:56:29;;;;;;;;;;;;;;;4.03;89.84;94928.91;5032818;28;19956;-58
2020/12/07 11:58:56;;;;;;;;;;;;;;;3.98;91.98;94923.28;5003922;28;20377;-57
2020/12/07 12:01:24;;;;;;;;;;;;;;;3.97;91.06;94926.06;5033206;28;19951;-56
2020/12/07 12:03:51;;;;;;;;;;;;;;;3.95;91.02;94920.97;4987711;28;20361;-58
2020/12/07 12:06:21;;;;;;;;;;;;;;;4.03;91.16;94923.69;5036894;28;19928;-58
2020/12/07 12:08:49;;;;;;;;;;;;;;;4.24;90.88;94925.28;5005898;28;19932;-57
2020/12/07 12:11:16;;;;;;;;;;;;;;;4.78;88.21;94928.81;5033491;28;19968;-59
2020/12/07 12:13:43;;;;;;;;;;;;;;;5.11;86.19;94924.78;4996865;28;19921;-60
2020/12/07 12:16:10;;;;;;;;;;;;;;;5.21;85.91;94924.69;5042293;28;20363;-58
2020/12/07 12:18:38;;;;;;;;;;;;;;;5.45;84.91;94914.44;4994632;28;19921;-59
2020/12/07 12:21:05;;;;;;;;;;;;;;;5.67;83.21;94913.13;5028174;28;19949;-58
2020/12/07 12:23:32;;;;;;;;;;;;;;;6.04;81.08;94916.53;5045647;28;19931;-57
2020/12/07 12:25:59;;;;;;;;;;;;;;;6.26;79.94;94909.91;4991531;28;19921;-58
2020/12/07 12:28:25;;;;;;;;;;;;;;;6.40;77.29;94912.78;5034911;28;19929;-59
2020/12/07 12:30:53;;;;;;;;;;;;;;;6.31;76.24;94905.88;5006155;28;19925;-57
2020/12/07 12:33:24;;;;;;;;;;;;;;;5.90;74.95;94903.00;5035444;28;20391;-58